Aérodrome :
LOGIN :

S'inscrire | Disclaimer

   EN    FR    IT 

 










Légende :    VFR   VFR Marginal   IFR   IFR Intensif   IFR Très Intensif
Visi : 
Plafond : 
>= 8 km
>= 3000ft
5 à 8 km
1000 à 3000 ft
1500m à 5 km
500 à 1000 ft
800 à 1500m
200 à 500 ft
< 800m
< 200 ft
Symboles :   Orages  Brouillard  Fortes neiges  Fortes précipitations  Vent > 20 kt
SIGMETs :   Divers  Orages  Givrage  Turbulence  Onde Orograph.  Cendres Volcan.






- Altitude de l'aérodrome : 735 ft
- Code IATA : EGO


UUOB - Belgorod

DERNIER METAR :
  • 070900Z 20003MPS 160V260 CAVOK 26/12 Q1018 R11/010060 NOSIG

METARs EXPIRÉS :
  • 070830Z 19005MPS CAVOK 26/10 Q1018 R11/010060 NOSIG
  • 070800Z 19004MPS 150V280 CAVOK 26/12 Q1018 R11/010060 NOSIG
  • 070730Z 21002MPS 150V260 CAVOK 25/13 Q1018 R29/010060 NOSIG
  • 070700Z 22003MPS 190V270 CAVOK 25/13 Q1018 R29/010060 NOSIG
  • 070630Z 18002MPS 150V250 CAVOK 24/14 Q1018 R29/010060 NOSIG

TAF TAF UUOB
Valide du 07 à 09h jusqu'au 07 à 18h UTC


070800Z 0709/0718 17003MPS CAVOK



MET'MAP, la Météo Aéronautique d'un coup d'oeil ! - Copyright ORBIFLY Décembre 2007 - Disclaimer

ORBIFLY MET'MAP TEAM :

Programmation & Développement : Alexandra Zaïnal
Sur une idée originale de : Baudouin d'Aumeries
Assistance à la programmation : Marc-Olivier Méhu
Soutien technique & logistique : Manuel Goepfert

Contact : metmap@orbifly.com




SOURCES & CREDITS :

   NOAA